sensor_id;sensor_type;location;lat;lon;timestamp;P1;durP1;ratioP1;P2;durP2;ratioP2
15408;SDS011;7803;48.130;13.788;2023-12-28T00:02:43;11.95;;;7.50;;
15408;SDS011;7803;48.130;13.788;2023-12-28T00:05:45;8.75;;;7.90;;
15408;SDS011;7803;48.130;13.788;2023-12-28T00:08:47;8.88;;;7.55;;
15408;SDS011;7803;48.130;13.788;2023-12-28T00:11:51;9.70;;;7.65;;
15408;SDS011;7803;48.130;13.788;2023-12-28T00:14:53;8.32;;;7.40;;
15408;SDS011;7803;48.130;13.788;2023-12-28T00:17:55;9.23;;;7.50;;
15408;SDS011;7803;48.130;13.788;2023-12-28T00:20:57;8.38;;;7.40;;
15408;SDS011;7803;48.130;13.788;2023-12-28T00:23:59;8.45;;;7.55;;
15408;SDS011;7803;48.130;13.788;2023-12-28T00:27:02;7.60;;;6.80;;
15408;SDS011;7803;48.130;13.788;2023-12-28T00:30:05;7.53;;;6.82;;
15408;SDS011;7803;48.130;13.788;2023-12-28T00:33:07;10.13;;;7.00;;
15408;SDS011;7803;48.130;13.788;2023-12-28T00:36:09;9.40;;;7.55;;
15408;SDS011;7803;48.130;13.788;2023-12-28T00:39:11;9.52;;;7.53;;
15408;SDS011;7803;48.130;13.788;2023-12-28T00:42:17;9.38;;;7.45;;
15408;SDS011;7803;48.130;13.788;2023-12-28T00:45:19;7.90;;;7.10;;
15408;SDS011;7803;48.130;13.788;2023-12-28T00:48:21;9.48;;;7.22;;
15408;SDS011;7803;48.130;13.788;2023-12-28T00:51:23;8.13;;;7.10;;
15408;SDS011;7803;48.130;13.788;2023-12-28T00:54:25;9.32;;;7.13;;
15408;SDS011;7803;48.130;13.788;2023-12-28T00:57:28;8.50;;;7.60;;
15408;SDS011;7803;48.130;13.788;2023-12-28T01:00:30;8.45;;;7.40;;
15408;SDS011;7803;48.130;13.788;2023-12-28T01:03:32;8.45;;;7.63;;
15408;SDS011;7803;48.130;13.788;2023-12-28T01:06:34;9.07;;;8.18;;
15408;SDS011;7803;48.130;13.788;2023-12-28T01:09:36;8.27;;;7.45;;
15408;SDS011;7803;48.130;13.788;2023-12-28T01:12:40;9.40;;;7.95;;
15408;SDS011;7803;48.130;13.788;2023-12-28T01:15:41;9.27;;;8.27;;
15408;SDS011;7803;48.130;13.788;2023-12-28T01:18:43;9.95;;;8.25;;
15408;SDS011;7803;48.130;13.788;2023-12-28T01:21:45;8.68;;;7.88;;
15408;SDS011;7803;48.130;13.788;2023-12-28T01:24:48;9.63;;;8.63;;
15408;SDS011;7803;48.130;13.788;2023-12-28T01:27:51;10.20;;;9.10;;
15408;SDS011;7803;48.130;13.788;2023-12-28T01:30:53;9.52;;;8.15;;
15408;SDS011;7803;48.130;13.788;2023-12-28T01:33:55;9.65;;;8.70;;
15408;SDS011;7803;48.130;13.788;2023-12-28T01:36:57;10.07;;;9.07;;
15408;SDS011;7803;48.130;13.788;2023-12-28T01:39:59;10.93;;;9.55;;
15408;SDS011;7803;48.130;13.788;2023-12-28T01:43:03;11.52;;;9.75;;
15408;SDS011;7803;48.130;13.788;2023-12-28T01:46:05;10.18;;;9.18;;
15408;SDS011;7803;48.130;13.788;2023-12-28T01:49:10;9.68;;;8.65;;
15408;SDS011;7803;48.130;13.788;2023-12-28T01:52:12;9.93;;;8.93;;
15408;SDS011;7803;48.130;13.788;2023-12-28T01:55:14;11.38;;;9.27;;
15408;SDS011;7803;48.130;13.788;2023-12-28T01:58:18;10.80;;;9.23;;
15408;SDS011;7803;48.130;13.788;2023-12-28T02:01:20;10.20;;;9.13;;
15408;SDS011;7803;48.130;13.788;2023-12-28T02:04:22;10.20;;;9.20;;
15408;SDS011;7803;48.130;13.788;2023-12-28T02:07:28;10.32;;;8.77;;
15408;SDS011;7803;48.130;13.788;2023-12-28T02:10:31;9.75;;;8.75;;
15408;SDS011;7803;48.130;13.788;2023-12-28T02:13:34;10.48;;;9.38;;
15408;SDS011;7803;48.130;13.788;2023-12-28T02:16:38;10.38;;;9.27;;
15408;SDS011;7803;48.130;13.788;2023-12-28T02:19:47;10.15;;;9.15;;
15408;SDS011;7803;48.130;13.788;2023-12-28T02:22:51;10.70;;;9.60;;
15408;SDS011;7803;48.130;13.788;2023-12-28T02:25:55;10.52;;;9.43;;
15408;SDS011;7803;48.130;13.788;2023-12-28T02:28:57;10.20;;;9.20;;
15408;SDS011;7803;48.130;13.788;2023-12-28T02:32:00;9.52;;;8.63;;
15408;SDS011;7803;48.130;13.788;2023-12-28T02:35:09;10.73;;;9.23;;
15408;SDS011;7803;48.130;13.788;2023-12-28T02:38:18;10.52;;;9.20;;
15408;SDS011;7803;48.130;13.788;2023-12-28T02:41:22;9.80;;;8.80;;
15408;SDS011;7803;48.130;13.788;2023-12-28T02:44:25;9.77;;;8.77;;
15408;SDS011;7803;48.130;13.788;2023-12-28T02:47:27;10.02;;;9.02;;
15408;SDS011;7803;48.130;13.788;2023-12-28T02:50:29;9.48;;;8.48;;
15408;SDS011;7803;48.130;13.788;2023-12-28T02:53:32;9.25;;;8.32;;
15408;SDS011;7803;48.130;13.788;2023-12-28T02:56:35;9.95;;;8.90;;
15408;SDS011;7803;48.130;13.788;2023-12-28T02:59:37;9.43;;;8.52;;
15408;SDS011;7803;48.130;13.788;2023-12-28T03:02:40;9.70;;;8.57;;
15408;SDS011;7803;48.130;13.788;2023-12-28T03:05:42;10.13;;;8.88;;
15408;SDS011;7803;48.130;13.788;2023-12-28T03:08:43;12.77;;;9.00;;
15408;SDS011;7803;48.130;13.788;2023-12-28T03:11:47;9.45;;;8.45;;
15408;SDS011;7803;48.130;13.788;2023-12-28T03:14:49;9.77;;;8.35;;
15408;SDS011;7803;48.130;13.788;2023-12-28T03:17:51;10.88;;;8.27;;
15408;SDS011;7803;48.130;13.788;2023-12-28T03:20:53;9.95;;;8.15;;
15408;SDS011;7803;48.130;13.788;2023-12-28T03:23:55;10.23;;;8.10;;
15408;SDS011;7803;48.130;13.788;2023-12-28T03:26:58;13.60;;;8.88;;
15408;SDS011;7803;48.130;13.788;2023-12-28T03:30:00;10.82;;;8.48;;
15408;SDS011;7803;48.130;13.788;2023-12-28T03:33:02;9.10;;;8.20;;
15408;SDS011;7803;48.130;13.788;2023-12-28T03:36:05;9.13;;;8.07;;
15408;SDS011;7803;48.130;13.788;2023-12-28T03:39:07;10.50;;;9.23;;
15408;SDS011;7803;48.130;13.788;2023-12-28T03:42:11;11.63;;;9.07;;
15408;SDS011;7803;48.130;13.788;2023-12-28T03:45:13;17.92;;;12.48;;
15408;SDS011;7803;48.130;13.788;2023-12-28T03:48:16;15.88;;;12.23;;
15408;SDS011;7803;48.130;13.788;2023-12-28T03:51:17;16.65;;;11.98;;
15408;SDS011;7803;48.130;13.788;2023-12-28T03:54:20;14.20;;;11.35;;
15408;SDS011;7803;48.130;13.788;2023-12-28T03:57:23;11.55;;;9.88;;
15408;SDS011;7803;48.130;13.788;2023-12-28T04:00:26;13.13;;;10.70;;
15408;SDS011;7803;48.130;13.788;2023-12-28T04:03:28;11.68;;;10.45;;
15408;SDS011;7803;48.130;13.788;2023-12-28T04:06:30;12.13;;;10.32;;
15408;SDS011;7803;48.130;13.788;2023-12-28T04:09:32;12.02;;;10.80;;
15408;SDS011;7803;48.130;13.788;2023-12-28T04:12:35;11.70;;;10.45;;
15408;SDS011;7803;48.130;13.788;2023-12-28T04:15:38;12.05;;;10.73;;
15408;SDS011;7803;48.130;13.788;2023-12-28T04:18:43;11.57;;;10.43;;
15408;SDS011;7803;48.130;13.788;2023-12-28T04:21:45;11.98;;;10.73;;
15408;SDS011;7803;48.130;13.788;2023-12-28T04:24:47;11.43;;;10.32;;
15408;SDS011;7803;48.130;13.788;2023-12-28T04:27:50;11.43;;;10.30;;
15408;SDS011;7803;48.130;13.788;2023-12-28T04:30:52;11.65;;;10.30;;
15408;SDS011;7803;48.130;13.788;2023-12-28T04:33:54;11.40;;;9.70;;
15408;SDS011;7803;48.130;13.788;2023-12-28T04:36:56;10.23;;;9.18;;
15408;SDS011;7803;48.130;13.788;2023-12-28T04:39:58;9.20;;;8.30;;
15408;SDS011;7803;48.130;13.788;2023-12-28T04:43:02;9.82;;;8.65;;
15408;SDS011;7803;48.130;13.788;2023-12-28T04:46:04;10.50;;;8.73;;
15408;SDS011;7803;48.130;13.788;2023-12-28T04:49:06;9.23;;;8.32;;
15408;SDS011;7803;48.130;13.788;2023-12-28T04:52:08;8.40;;;7.50;;
15408;SDS011;7803;48.130;13.788;2023-12-28T04:55:10;8.25;;;7.45;;
15408;SDS011;7803;48.130;13.788;2023-12-28T04:58:14;8.73;;;7.50;;
15408;SDS011;7803;48.130;13.788;2023-12-28T05:01:16;8.07;;;7.28;;
15408;SDS011;7803;48.130;13.788;2023-12-28T05:04:18;8.20;;;7.40;;
15408;SDS011;7803;48.130;13.788;2023-12-28T05:07:20;7.68;;;6.97;;
15408;SDS011;7803;48.130;13.788;2023-12-28T05:10:22;7.60;;;6.90;;
15408;SDS011;7803;48.130;13.788;2023-12-28T05:13:25;7.97;;;7.13;;
15408;SDS011;7803;48.130;13.788;2023-12-28T05:16:27;7.80;;;7.00;;
15408;SDS011;7803;48.130;13.788;2023-12-28T05:19:30;7.90;;;6.95;;
15408;SDS011;7803;48.130;13.788;2023-12-28T05:22:32;7.72;;;6.93;;
15408;SDS011;7803;48.130;13.788;2023-12-28T05:25:34;7.13;;;6.45;;
15408;SDS011;7803;48.130;13.788;2023-12-28T05:28:37;7.18;;;6.47;;
15408;SDS011;7803;48.130;13.788;2023-12-28T05:31:39;6.50;;;5.90;;
15408;SDS011;7803;48.130;13.788;2023-12-28T05:34:41;6.88;;;6.20;;
15408;SDS011;7803;48.130;13.788;2023-12-28T05:37:43;7.97;;;6.78;;
15408;SDS011;7803;48.130;13.788;2023-12-28T05:40:45;8.48;;;6.85;;
15408;SDS011;7803;48.130;13.788;2023-12-28T05:43:48;6.72;;;6.03;;
15408;SDS011;7803;48.130;13.788;2023-12-28T05:46:50;6.88;;;6.20;;
15408;SDS011;7803;48.130;13.788;2023-12-28T05:49:53;7.05;;;6.45;;
15408;SDS011;7803;48.130;13.788;2023-12-28T05:52:55;7.18;;;6.47;;
15408;SDS011;7803;48.130;13.788;2023-12-28T05:55:57;7.28;;;6.57;;
15408;SDS011;7803;48.130;13.788;2023-12-28T05:59:04;6.88;;;6.18;;
15408;SDS011;7803;48.130;13.788;2023-12-28T06:02:06;7.30;;;6.53;;
15408;SDS011;7803;48.130;13.788;2023-12-28T06:05:08;7.20;;;6.50;;
15408;SDS011;7803;48.130;13.788;2023-12-28T06:08:10;7.07;;;6.38;;
15408;SDS011;7803;48.130;13.788;2023-12-28T06:11:13;6.50;;;5.90;;
15408;SDS011;7803;48.130;13.788;2023-12-28T06:14:17;7.25;;;6.55;;
15408;SDS011;7803;48.130;13.788;2023-12-28T06:17:19;7.78;;;6.97;;
15408;SDS011;7803;48.130;13.788;2023-12-28T06:20:21;7.80;;;7.00;;
15408;SDS011;7803;48.130;13.788;2023-12-28T06:23:23;7.53;;;6.80;;
15408;SDS011;7803;48.130;13.788;2023-12-28T06:26:26;7.00;;;6.40;;
15408;SDS011;7803;48.130;13.788;2023-12-28T06:29:29;6.70;;;6.10;;
15408;SDS011;7803;48.130;13.788;2023-12-28T06:32:31;7.57;;;6.88;;
15408;SDS011;7803;48.130;13.788;2023-12-28T06:35:33;7.32;;;6.63;;
15408;SDS011;7803;48.130;13.788;2023-12-28T06:38:35;7.30;;;6.60;;
15408;SDS011;7803;48.130;13.788;2023-12-28T06:41:38;8.13;;;7.32;;
15408;SDS011;7803;48.130;13.788;2023-12-28T06:44:41;7.65;;;6.85;;
15408;SDS011;7803;48.130;13.788;2023-12-28T06:47:43;7.70;;;7.00;;
15408;SDS011;7803;48.130;13.788;2023-12-28T06:50:45;7.53;;;6.82;;
15408;SDS011;7803;48.130;13.788;2023-12-28T06:53:47;7.80;;;6.82;;
15408;SDS011;7803;48.130;13.788;2023-12-28T06:56:49;7.90;;;7.10;;
15408;SDS011;7803;48.130;13.788;2023-12-28T06:59:53;7.70;;;7.00;;
15408;SDS011;7803;48.130;13.788;2023-12-28T07:02:56;8.02;;;7.22;;
15408;SDS011;7803;48.130;13.788;2023-12-28T07:05:58;9.23;;;7.55;;
15408;SDS011;7803;48.130;13.788;2023-12-28T07:09:00;8.23;;;7.43;;
15408;SDS011;7803;48.130;13.788;2023-12-28T07:12:02;8.23;;;7.47;;
15408;SDS011;7803;48.130;13.788;2023-12-28T07:15:06;8.30;;;7.60;;
15408;SDS011;7803;48.130;13.788;2023-12-28T07:18:10;8.32;;;7.53;;
15408;SDS011;7803;48.130;13.788;2023-12-28T07:21:12;8.45;;;7.65;;
15408;SDS011;7803;48.130;13.788;2023-12-28T07:24:14;7.80;;;6.97;;
15408;SDS011;7803;48.130;13.788;2023-12-28T07:27:16;8.85;;;7.60;;
15408;SDS011;7803;48.130;13.788;2023-12-28T07:30:19;9.20;;;8.15;;
15408;SDS011;7803;48.130;13.788;2023-12-28T07:33:21;8.02;;;7.25;;
15408;SDS011;7803;48.130;13.788;2023-12-28T07:36:23;8.63;;;7.72;;
15408;SDS011;7803;48.130;13.788;2023-12-28T07:39:25;8.02;;;7.32;;
15408;SDS011;7803;48.130;13.788;2023-12-28T07:42:27;8.50;;;7.65;;
15408;SDS011;7803;48.130;13.788;2023-12-28T07:45:30;7.55;;;6.85;;
15408;SDS011;7803;48.130;13.788;2023-12-28T07:48:33;8.15;;;7.35;;
15408;SDS011;7803;48.130;13.788;2023-12-28T07:51:35;7.88;;;7.10;;
15408;SDS011;7803;48.130;13.788;2023-12-28T07:54:37;8.07;;;7.38;;
15408;SDS011;7803;48.130;13.788;2023-12-28T07:57:39;8.40;;;7.60;;
15408;SDS011;7803;48.130;13.788;2023-12-28T08:00:42;8.15;;;7.35;;
15408;SDS011;7803;48.130;13.788;2023-12-28T08:03:44;8.20;;;7.40;;
15408;SDS011;7803;48.130;13.788;2023-12-28T08:06:46;8.07;;;7.38;;
15408;SDS011;7803;48.130;13.788;2023-12-28T08:09:48;8.50;;;7.70;;
15408;SDS011;7803;48.130;13.788;2023-12-28T08:12:50;7.68;;;6.97;;
15408;SDS011;7803;48.130;13.788;2023-12-28T08:15:53;7.55;;;6.85;;
15408;SDS011;7803;48.130;13.788;2023-12-28T08:18:55;7.55;;;6.85;;
15408;SDS011;7803;48.130;13.788;2023-12-28T08:21:57;8.00;;;7.30;;
15408;SDS011;7803;48.130;13.788;2023-12-28T08:24:59;7.97;;;7.20;;
15408;SDS011;7803;48.130;13.788;2023-12-28T08:28:01;7.78;;;7.07;;
15408;SDS011;7803;48.130;13.788;2023-12-28T08:31:05;7.30;;;6.60;;
15408;SDS011;7803;48.130;13.788;2023-12-28T08:34:08;7.43;;;6.72;;
15408;SDS011;7803;48.130;13.788;2023-12-28T08:37:10;7.18;;;6.47;;
15408;SDS011;7803;48.130;13.788;2023-12-28T08:40:13;7.55;;;6.80;;
15408;SDS011;7803;48.130;13.788;2023-12-28T08:43:15;7.63;;;6.90;;
15408;SDS011;7803;48.130;13.788;2023-12-28T08:46:18;7.00;;;6.30;;
15408;SDS011;7803;48.130;13.788;2023-12-28T08:49:20;7.60;;;6.90;;
15408;SDS011;7803;48.130;13.788;2023-12-28T08:52:23;7.47;;;6.78;;
15408;SDS011;7803;48.130;13.788;2023-12-28T08:55:25;7.63;;;6.93;;
15408;SDS011;7803;48.130;13.788;2023-12-28T08:58:27;7.28;;;6.43;;
15408;SDS011;7803;48.130;13.788;2023-12-28T09:01:30;6.90;;;6.30;;
15408;SDS011;7803;48.130;13.788;2023-12-28T09:04:32;7.40;;;6.70;;
15408;SDS011;7803;48.130;13.788;2023-12-28T09:07:34;7.15;;;6.45;;
15408;SDS011;7803;48.130;13.788;2023-12-28T09:10:42;6.78;;;6.18;;
15408;SDS011;7803;48.130;13.788;2023-12-28T09:13:44;7.78;;;6.03;;
15408;SDS011;7803;48.130;13.788;2023-12-28T09:16:48;6.53;;;5.93;;
15408;SDS011;7803;48.130;13.788;2023-12-28T09:19:50;6.53;;;5.93;;
15408;SDS011;7803;48.130;13.788;2023-12-28T09:22:52;6.57;;;5.97;;
15408;SDS011;7803;48.130;13.788;2023-12-28T09:25:56;7.13;;;6.43;;
15408;SDS011;7803;48.130;13.788;2023-12-28T09:28:58;6.90;;;6.25;;
15408;SDS011;7803;48.130;13.788;2023-12-28T09:32:02;6.72;;;6.13;;
15408;SDS011;7803;48.130;13.788;2023-12-28T09:35:04;6.53;;;5.93;;
15408;SDS011;7803;48.130;13.788;2023-12-28T09:38:07;6.35;;;5.75;;
15408;SDS011;7803;48.130;13.788;2023-12-28T09:41:11;6.43;;;5.82;;
15408;SDS011;7803;48.130;13.788;2023-12-28T09:44:15;6.13;;;5.53;;
15408;SDS011;7803;48.130;13.788;2023-12-28T09:47:20;6.53;;;5.93;;
15408;SDS011;7803;48.130;13.788;2023-12-28T09:50:22;6.38;;;5.78;;
15408;SDS011;7803;48.130;13.788;2023-12-28T09:53:26;6.35;;;5.72;;
15408;SDS011;7803;48.130;13.788;2023-12-28T09:56:29;6.22;;;5.63;;
15408;SDS011;7803;48.130;13.788;2023-12-28T09:59:33;6.15;;;5.55;;
15408;SDS011;7803;48.130;13.788;2023-12-28T10:02:36;6.20;;;5.60;;
15408;SDS011;7803;48.130;13.788;2023-12-28T10:05:40;5.97;;;5.47;;
15408;SDS011;7803;48.130;13.788;2023-12-28T10:08:45;5.97;;;5.38;;
15408;SDS011;7803;48.130;13.788;2023-12-28T10:11:47;6.07;;;5.47;;
15408;SDS011;7803;48.130;13.788;2023-12-28T10:14:50;5.68;;;5.18;;
15408;SDS011;7803;48.130;13.788;2023-12-28T10:17:53;5.82;;;5.32;;
15408;SDS011;7803;48.130;13.788;2023-12-28T10:20:55;5.38;;;4.88;;
15408;SDS011;7803;48.130;13.788;2023-12-28T10:23:57;6.15;;;5.55;;
15408;SDS011;7803;48.130;13.788;2023-12-28T10:26:59;6.30;;;5.70;;
15408;SDS011;7803;48.130;13.788;2023-12-28T10:30:02;5.80;;;5.30;;
15408;SDS011;7803;48.130;13.788;2023-12-28T10:33:06;5.57;;;5.07;;
15408;SDS011;7803;48.130;13.788;2023-12-28T10:36:08;5.35;;;4.95;;
15408;SDS011;7803;48.130;13.788;2023-12-28T10:39:10;5.63;;;5.13;;
15408;SDS011;7803;48.130;13.788;2023-12-28T10:42:17;5.55;;;5.05;;
15408;SDS011;7803;48.130;13.788;2023-12-28T10:45:32;5.40;;;4.90;;
15408;SDS011;7803;48.130;13.788;2023-12-28T10:48:37;5.93;;;4.97;;
15408;SDS011;7803;48.130;13.788;2023-12-28T10:51:43;5.30;;;4.80;;
15408;SDS011;7803;48.130;13.788;2023-12-28T10:54:47;6.63;;;5.53;;
15408;SDS011;7803;48.130;13.788;2023-12-28T10:57:58;5.30;;;4.80;;
15408;SDS011;7803;48.130;13.788;2023-12-28T11:01:06;5.38;;;4.88;;
15408;SDS011;7803;48.130;13.788;2023-12-28T11:04:17;5.57;;;5.03;;
15408;SDS011;7803;48.130;13.788;2023-12-28T11:07:25;5.13;;;4.63;;
15408;SDS011;7803;48.130;13.788;2023-12-28T11:10:32;5.25;;;4.75;;
15408;SDS011;7803;48.130;13.788;2023-12-28T11:13:36;5.72;;;5.13;;
15408;SDS011;7803;48.130;13.788;2023-12-28T11:16:40;5.40;;;4.90;;
15408;SDS011;7803;48.130;13.788;2023-12-28T11:19:45;4.93;;;4.53;;
15408;SDS011;7803;48.130;13.788;2023-12-28T11:22:48;5.00;;;4.57;;
15408;SDS011;7803;48.130;13.788;2023-12-28T11:25:51;4.85;;;4.45;;
15408;SDS011;7803;48.130;13.788;2023-12-28T11:28:59;5.10;;;4.63;;
15408;SDS011;7803;48.130;13.788;2023-12-28T11:32:02;5.28;;;4.78;;
15408;SDS011;7803;48.130;13.788;2023-12-28T11:35:07;5.10;;;4.60;;
15408;SDS011;7803;48.130;13.788;2023-12-28T11:38:11;4.93;;;4.45;;
15408;SDS011;7803;48.130;13.788;2023-12-28T11:41:16;4.85;;;4.45;;
15408;SDS011;7803;48.130;13.788;2023-12-28T11:44:20;4.90;;;4.47;;
15408;SDS011;7803;48.130;13.788;2023-12-28T11:47:27;4.57;;;4.18;;
15408;SDS011;7803;48.130;13.788;2023-12-28T11:50:30;5.10;;;4.60;;
15408;SDS011;7803;48.130;13.788;2023-12-28T11:53:32;4.60;;;4.20;;
15408;SDS011;7803;48.130;13.788;2023-12-28T11:56:35;5.00;;;4.53;;
15408;SDS011;7803;48.130;13.788;2023-12-28T11:59:37;4.53;;;4.13;;
15408;SDS011;7803;48.130;13.788;2023-12-28T12:02:42;4.55;;;4.15;;
15408;SDS011;7803;48.130;13.788;2023-12-28T12:05:46;4.45;;;4.05;;
15408;SDS011;7803;48.130;13.788;2023-12-28T12:08:49;4.80;;;4.30;;
15408;SDS011;7803;48.130;13.788;2023-12-28T12:11:51;4.20;;;3.80;;
15408;SDS011;7803;48.130;13.788;2023-12-28T12:14:54;4.43;;;4.03;;
15408;SDS011;7803;48.130;13.788;2023-12-28T12:17:56;4.40;;;4.00;;
15408;SDS011;7803;48.130;13.788;2023-12-28T12:20:59;4.80;;;4.38;;
15408;SDS011;7803;48.130;13.788;2023-12-28T12:24:02;4.40;;;4.00;;
15408;SDS011;7803;48.130;13.788;2023-12-28T12:27:05;4.35;;;3.95;;
15408;SDS011;7803;48.130;13.788;2023-12-28T12:30:07;4.35;;;3.95;;
15408;SDS011;7803;48.130;13.788;2023-12-28T12:33:10;4.22;;;3.83;;
15408;SDS011;7803;48.130;13.788;2023-12-28T12:36:13;4.28;;;3.88;;
15408;SDS011;7803;48.130;13.788;2023-12-28T12:39:15;4.13;;;3.72;;
15408;SDS011;7803;48.130;13.788;2023-12-28T12:42:17;4.05;;;3.75;;
15408;SDS011;7803;48.130;13.788;2023-12-28T12:45:20;4.40;;;4.00;;
15408;SDS011;7803;48.130;13.788;2023-12-28T12:48:23;4.43;;;4.03;;
15408;SDS011;7803;48.130;13.788;2023-12-28T12:51:26;4.15;;;3.75;;
15408;SDS011;7803;48.130;13.788;2023-12-28T12:54:29;4.43;;;4.03;;
15408;SDS011;7803;48.130;13.788;2023-12-28T12:57:31;4.15;;;3.75;;
15408;SDS011;7803;48.130;13.788;2023-12-28T13:00:34;4.30;;;3.90;;
15408;SDS011;7803;48.130;13.788;2023-12-28T13:03:36;4.22;;;3.70;;
15408;SDS011;7803;48.130;13.788;2023-12-28T13:06:39;4.05;;;3.70;;
15408;SDS011;7803;48.130;13.788;2023-12-28T13:09:41;3.78;;;3.42;;
15408;SDS011;7803;48.130;13.788;2023-12-28T13:12:43;3.78;;;3.47;;
15408;SDS011;7803;48.130;13.788;2023-12-28T13:15:45;4.00;;;3.65;;
15408;SDS011;7803;48.130;13.788;2023-12-28T13:18:47;3.85;;;3.55;;
15408;SDS011;7803;48.130;13.788;2023-12-28T13:21:50;3.80;;;3.40;;
15408;SDS011;7803;48.130;13.788;2023-12-28T13:24:52;4.05;;;3.65;;
15408;SDS011;7803;48.130;13.788;2023-12-28T13:27:54;3.70;;;3.40;;
15408;SDS011;7803;48.130;13.788;2023-12-28T13:30:56;3.78;;;3.47;;
15408;SDS011;7803;48.130;13.788;2023-12-28T13:33:58;3.60;;;3.30;;
15408;SDS011;7803;48.130;13.788;2023-12-28T13:37:02;4.63;;;3.83;;
15408;SDS011;7803;48.130;13.788;2023-12-28T13:40:05;4.03;;;3.63;;
15408;SDS011;7803;48.130;13.788;2023-12-28T13:43:08;4.05;;;3.65;;
15408;SDS011;7803;48.130;13.788;2023-12-28T13:46:10;3.60;;;3.30;;
15408;SDS011;7803;48.130;13.788;2023-12-28T13:49:12;3.60;;;3.30;;
15408;SDS011;7803;48.130;13.788;2023-12-28T13:52:15;3.90;;;3.50;;
15408;SDS011;7803;48.130;13.788;2023-12-28T13:55:17;4.03;;;3.63;;
15408;SDS011;7803;48.130;13.788;2023-12-28T13:58:19;3.70;;;3.40;;
15408;SDS011;7803;48.130;13.788;2023-12-28T14:01:22;4.03;;;3.63;;
15408;SDS011;7803;48.130;13.788;2023-12-28T14:04:24;3.40;;;3.10;;
15408;SDS011;7803;48.130;13.788;2023-12-28T14:07:27;3.50;;;3.20;;
15408;SDS011;7803;48.130;13.788;2023-12-28T14:10:29;3.72;;;3.40;;
15408;SDS011;7803;48.130;13.788;2023-12-28T14:13:31;3.75;;;3.35;;
15408;SDS011;7803;48.130;13.788;2023-12-28T14:16:35;4.32;;;3.53;;
15408;SDS011;7803;48.130;13.788;2023-12-28T14:19:37;3.65;;;3.20;;
15408;SDS011;7803;48.130;13.788;2023-12-28T14:22:41;3.63;;;3.33;;
15408;SDS011;7803;48.130;13.788;2023-12-28T14:25:43;3.67;;;3.35;;
15408;SDS011;7803;48.130;13.788;2023-12-28T14:28:51;3.60;;;3.30;;
15408;SDS011;7803;48.130;13.788;2023-12-28T14:31:54;3.95;;;3.42;;
15408;SDS011;7803;48.130;13.788;2023-12-28T14:34:56;3.97;;;3.65;;
15408;SDS011;7803;48.130;13.788;2023-12-28T14:38:00;3.35;;;3.05;;
15408;SDS011;7803;48.130;13.788;2023-12-28T14:41:02;3.67;;;3.38;;
15408;SDS011;7803;48.130;13.788;2023-12-28T14:44:04;3.75;;;3.28;;
15408;SDS011;7803;48.130;13.788;2023-12-28T14:47:06;3.60;;;3.30;;
15408;SDS011;7803;48.130;13.788;2023-12-28T14:50:08;3.40;;;3.10;;
15408;SDS011;7803;48.130;13.788;2023-12-28T14:53:12;3.90;;;3.50;;
15408;SDS011;7803;48.130;13.788;2023-12-28T14:56:14;3.60;;;3.30;;
15408;SDS011;7803;48.130;13.788;2023-12-28T14:59:16;3.35;;;3.05;;
15408;SDS011;7803;48.130;13.788;2023-12-28T15:02:18;3.50;;;3.20;;
15408;SDS011;7803;48.130;13.788;2023-12-28T15:05:20;3.58;;;3.25;;
15408;SDS011;7803;48.130;13.788;2023-12-28T15:08:23;4.43;;;3.58;;
15408;SDS011;7803;48.130;13.788;2023-12-28T15:11:26;3.78;;;3.47;;
15408;SDS011;7803;48.130;13.788;2023-12-28T15:14:29;3.50;;;3.20;;
15408;SDS011;7803;48.130;13.788;2023-12-28T15:17:32;3.40;;;3.10;;
15408;SDS011;7803;48.130;13.788;2023-12-28T15:20:34;4.70;;;3.90;;
15408;SDS011;7803;48.130;13.788;2023-12-28T15:23:38;3.40;;;3.10;;
15408;SDS011;7803;48.130;13.788;2023-12-28T15:26:41;3.55;;;3.20;;
15408;SDS011;7803;48.130;13.788;2023-12-28T15:29:43;3.38;;;3.08;;
15408;SDS011;7803;48.130;13.788;2023-12-28T15:32:45;3.40;;;3.10;;
15408;SDS011;7803;48.130;13.788;2023-12-28T15:35:47;3.50;;;3.20;;
15408;SDS011;7803;48.130;13.788;2023-12-28T15:38:50;3.72;;;3.38;;
15408;SDS011;7803;48.130;13.788;2023-12-28T15:41:52;3.50;;;3.08;;
15408;SDS011;7803;48.130;13.788;2023-12-28T15:44:55;3.70;;;3.40;;
15408;SDS011;7803;48.130;13.788;2023-12-28T15:47:57;3.58;;;3.28;;
15408;SDS011;7803;48.130;13.788;2023-12-28T15:50:59;3.65;;;3.35;;
15408;SDS011;7803;48.130;13.788;2023-12-28T15:54:02;3.42;;;3.13;;
15408;SDS011;7803;48.130;13.788;2023-12-28T15:57:04;3.35;;;3.05;;
15408;SDS011;7803;48.130;13.788;2023-12-28T16:00:07;3.55;;;3.25;;
15408;SDS011;7803;48.130;13.788;2023-12-28T16:03:10;3.60;;;3.22;;
15408;SDS011;7803;48.130;13.788;2023-12-28T16:06:12;3.85;;;3.00;;
15408;SDS011;7803;48.130;13.788;2023-12-28T16:09:16;4.38;;;3.88;;
15408;SDS011;7803;48.130;13.788;2023-12-28T16:12:18;5.97;;;3.78;;
15408;SDS011;7803;48.130;13.788;2023-12-28T16:15:20;5.65;;;3.83;;
15408;SDS011;7803;48.130;13.788;2023-12-28T16:18:23;8.18;;;3.92;;
15408;SDS011;7803;48.130;13.788;2023-12-28T16:21:26;7.40;;;4.10;;
15408;SDS011;7803;48.130;13.788;2023-12-28T16:24:32;8.63;;;4.45;;
15408;SDS011;7803;48.130;13.788;2023-12-28T16:27:34;10.80;;;4.68;;
15408;SDS011;7803;48.130;13.788;2023-12-28T16:30:36;9.35;;;4.88;;
15408;SDS011;7803;48.130;13.788;2023-12-28T16:33:38;12.20;;;5.10;;
15408;SDS011;7803;48.130;13.788;2023-12-28T16:36:40;9.00;;;4.80;;
15408;SDS011;7803;48.130;13.788;2023-12-28T16:39:43;10.23;;;4.90;;
15408;SDS011;7803;48.130;13.788;2023-12-28T16:42:45;10.27;;;5.30;;
15408;SDS011;7803;48.130;13.788;2023-12-28T16:45:47;11.43;;;4.93;;
15408;SDS011;7803;48.130;13.788;2023-12-28T16:48:49;7.57;;;5.20;;
15408;SDS011;7803;48.130;13.788;2023-12-28T16:51:51;9.88;;;5.35;;
15408;SDS011;7803;48.130;13.788;2023-12-28T16:54:55;12.45;;;5.90;;
15408;SDS011;7803;48.130;13.788;2023-12-28T16:57:57;10.75;;;6.00;;
15408;SDS011;7803;48.130;13.788;2023-12-28T17:00:59;12.05;;;6.40;;
15408;SDS011;7803;48.130;13.788;2023-12-28T17:04:01;10.43;;;6.18;;
15408;SDS011;7803;48.130;13.788;2023-12-28T17:07:03;11.55;;;6.28;;
15408;SDS011;7803;48.130;13.788;2023-12-28T17:10:07;9.02;;;5.88;;
15408;SDS011;7803;48.130;13.788;2023-12-28T17:13:10;8.85;;;5.47;;
15408;SDS011;7803;48.130;13.788;2023-12-28T17:16:14;12.07;;;5.43;;
15408;SDS011;7803;48.130;13.788;2023-12-28T17:19:16;10.60;;;5.60;;
15408;SDS011;7803;48.130;13.788;2023-12-28T17:22:19;9.18;;;5.38;;
15408;SDS011;7803;48.130;13.788;2023-12-28T17:25:29;8.98;;;5.35;;
15408;SDS011;7803;48.130;13.788;2023-12-28T17:28:36;6.75;;;4.90;;
15408;SDS011;7803;48.130;13.788;2023-12-28T17:31:44;9.88;;;5.05;;
15408;SDS011;7803;48.130;13.788;2023-12-28T17:34:47;7.88;;;5.07;;
15408;SDS011;7803;48.130;13.788;2023-12-28T17:37:49;6.93;;;4.50;;
15408;SDS011;7803;48.130;13.788;2023-12-28T17:40:53;7.97;;;4.95;;
15408;SDS011;7803;48.130;13.788;2023-12-28T17:43:56;8.80;;;5.10;;
15408;SDS011;7803;48.130;13.788;2023-12-28T17:47:02;7.22;;;4.82;;
15408;SDS011;7803;48.130;13.788;2023-12-28T17:50:13;5.90;;;4.47;;
15408;SDS011;7803;48.130;13.788;2023-12-28T17:53:15;6.35;;;4.57;;
15408;SDS011;7803;48.130;13.788;2023-12-28T17:56:19;8.25;;;5.03;;
15408;SDS011;7803;48.130;13.788;2023-12-28T17:59:21;6.63;;;4.50;;
15408;SDS011;7803;48.130;13.788;2023-12-28T18:02:23;6.07;;;4.32;;
15408;SDS011;7803;48.130;13.788;2023-12-28T18:05:25;6.47;;;4.65;;
15408;SDS011;7803;48.130;13.788;2023-12-28T18:08:27;6.07;;;4.60;;
15408;SDS011;7803;48.130;13.788;2023-12-28T18:11:31;6.53;;;4.65;;
15408;SDS011;7803;48.130;13.788;2023-12-28T18:14:33;4.93;;;4.35;;
15408;SDS011;7803;48.130;13.788;2023-12-28T18:17:35;5.15;;;4.28;;
15408;SDS011;7803;48.130;13.788;2023-12-28T18:20:37;5.47;;;4.30;;